sensor_id;sensor_type;location;lat;lon;timestamp;P1;durP1;ratioP1;P2;durP2;ratioP2
41514;SDS011;27247;48.020;16.720;2022-11-18T00:02:38;37.22;;;21.63;;
41514;SDS011;27247;48.020;16.720;2022-11-18T00:06:48;43.88;;;25.70;;
41514;SDS011;27247;48.020;16.720;2022-11-18T00:11:03;37.13;;;21.13;;
41514;SDS011;27247;48.020;16.720;2022-11-18T00:15:21;33.83;;;20.45;;
41514;SDS011;27247;48.020;16.720;2022-11-18T00:19:33;31.73;;;18.70;;
41514;SDS011;27247;48.020;16.720;2022-11-18T00:23:47;32.05;;;19.00;;
41514;SDS011;27247;48.020;16.720;2022-11-18T00:27:57;35.22;;;20.08;;
41514;SDS011;27247;48.020;16.720;2022-11-18T00:32:08;37.72;;;21.15;;
41514;SDS011;27247;48.020;16.720;2022-11-18T00:36:18;32.97;;;19.15;;
41514;SDS011;27247;48.020;16.720;2022-11-18T00:40:28;38.10;;;20.10;;
41514;SDS011;27247;48.020;16.720;2022-11-18T00:44:39;35.03;;;19.20;;
41514;SDS011;27247;48.020;16.720;2022-11-18T00:48:49;33.13;;;19.02;;
41514;SDS011;27247;48.020;16.720;2022-11-18T00:53:00;29.20;;;18.37;;
41514;SDS011;27247;48.020;16.720;2022-11-18T00:57:10;34.13;;;19.50;;
41514;SDS011;27247;48.020;16.720;2022-11-18T01:01:20;44.90;;;24.23;;
41514;SDS011;27247;48.020;16.720;2022-11-18T01:05:31;35.17;;;20.50;;
41514;SDS011;27247;48.020;16.720;2022-11-18T01:09:41;39.80;;;22.08;;
41514;SDS011;27247;48.020;16.720;2022-11-18T01:13:52;34.07;;;19.83;;
41514;SDS011;27247;48.020;16.720;2022-11-18T01:18:02;37.22;;;20.27;;
41514;SDS011;27247;48.020;16.720;2022-11-18T01:22:13;35.33;;;20.70;;
41514;SDS011;27247;48.020;16.720;2022-11-18T01:26:23;39.20;;;21.30;;
41514;SDS011;27247;48.020;16.720;2022-11-18T01:30:36;37.35;;;21.27;;
41514;SDS011;27247;48.020;16.720;2022-11-18T01:34:48;36.60;;;21.30;;
41514;SDS011;27247;48.020;16.720;2022-11-18T01:38:59;42.23;;;24.20;;
41514;SDS011;27247;48.020;16.720;2022-11-18T01:43:13;42.17;;;22.25;;
41514;SDS011;27247;48.020;16.720;2022-11-18T01:47:26;40.55;;;23.75;;
41514;SDS011;27247;48.020;16.720;2022-11-18T01:51:48;40.60;;;23.60;;
41514;SDS011;27247;48.020;16.720;2022-11-18T01:56:05;41.67;;;22.20;;
41514;SDS011;27247;48.020;16.720;2022-11-18T02:00:19;38.55;;;22.33;;
41514;SDS011;27247;48.020;16.720;2022-11-18T02:04:30;41.30;;;22.85;;
41514;SDS011;27247;48.020;16.720;2022-11-18T02:08:41;40.78;;;23.55;;
41514;SDS011;27247;48.020;16.720;2022-11-18T02:12:52;45.08;;;24.08;;
41514;SDS011;27247;48.020;16.720;2022-11-18T02:30:33;37.28;;;20.92;;
41514;SDS011;27247;48.020;16.720;2022-11-18T02:35:02;42.22;;;22.92;;
41514;SDS011;27247;48.020;16.720;2022-11-18T02:39:23;37.05;;;20.88;;
41514;SDS011;27247;48.020;16.720;2022-11-18T02:43:42;41.42;;;22.33;;
41514;SDS011;27247;48.020;16.720;2022-11-18T02:47:56;38.22;;;22.40;;
41514;SDS011;27247;48.020;16.720;2022-11-18T02:52:12;41.50;;;22.83;;
41514;SDS011;27247;48.020;16.720;2022-11-18T02:56:25;38.47;;;21.67;;
41514;SDS011;27247;48.020;16.720;2022-11-18T03:00:37;39.35;;;23.08;;
41514;SDS011;27247;48.020;16.720;2022-11-18T03:04:48;42.15;;;22.65;;
41514;SDS011;27247;48.020;16.720;2022-11-18T03:13:22;43.90;;;23.95;;
41514;SDS011;27247;48.020;16.720;2022-11-18T03:17:53;50.60;;;24.90;;
41514;SDS011;27247;48.020;16.720;2022-11-18T03:22:37;43.80;;;23.60;;
41514;SDS011;27247;48.020;16.720;2022-11-18T09:10:41;56.85;;;22.77;;
41514;SDS011;27247;48.020;16.720;2022-11-18T09:14:52;56.92;;;21.98;;
41514;SDS011;27247;48.020;16.720;2022-11-18T09:19:02;52.67;;;22.90;;
41514;SDS011;27247;48.020;16.720;2022-11-18T09:23:13;51.25;;;22.33;;
41514;SDS011;27247;48.020;16.720;2022-11-18T09:27:23;55.97;;;21.43;;
41514;SDS011;27247;48.020;16.720;2022-11-18T09:31:33;57.03;;;24.63;;
41514;SDS011;27247;48.020;16.720;2022-11-18T09:35:44;57.03;;;22.98;;
41514;SDS011;27247;48.020;16.720;2022-11-18T09:39:54;53.80;;;22.42;;
41514;SDS011;27247;48.020;16.720;2022-11-18T09:48:30;57.30;;;22.92;;
41514;SDS011;27247;48.020;16.720;2022-11-18T09:53:08;51.38;;;22.80;;
41514;SDS011;27247;48.020;16.720;2022-11-18T10:01:53;52.85;;;22.50;;
41514;SDS011;27247;48.020;16.720;2022-11-18T10:06:23;63.45;;;23.58;;
41514;SDS011;27247;48.020;16.720;2022-11-18T10:23:23;57.88;;;24.27;;
41514;SDS011;27247;48.020;16.720;2022-11-18T10:27:39;63.47;;;26.40;;
41514;SDS011;27247;48.020;16.720;2022-11-18T10:42:13;57.05;;;24.77;;
41514;SDS011;27247;48.020;16.720;2022-11-18T10:46:32;60.42;;;23.40;;
41514;SDS011;27247;48.020;16.720;2022-11-18T10:50:45;57.20;;;23.30;;
41514;SDS011;27247;48.020;16.720;2022-11-18T10:59:30;57.33;;;22.67;;
41514;SDS011;27247;48.020;16.720;2022-11-18T11:03:41;55.55;;;19.73;;
41514;SDS011;27247;48.020;16.720;2022-11-18T11:08:02;50.03;;;21.33;;
41514;SDS011;27247;48.020;16.720;2022-11-18T11:12:15;52.67;;;20.73;;
41514;SDS011;27247;48.020;16.720;2022-11-18T11:16:27;50.88;;;20.33;;
41514;SDS011;27247;48.020;16.720;2022-11-18T11:20:40;41.95;;;19.30;;
41514;SDS011;27247;48.020;16.720;2022-11-18T11:24:51;41.85;;;17.80;;
41514;SDS011;27247;48.020;16.720;2022-11-18T11:46:48;39.70;;;15.00;;
41514;SDS011;27247;48.020;16.720;2022-11-18T12:00:42;33.67;;;15.50;;
41514;SDS011;27247;48.020;16.720;2022-11-18T12:09:33;30.10;;;13.35;;
41514;SDS011;27247;48.020;16.720;2022-11-18T12:23:07;24.50;;;12.65;;
41514;SDS011;27247;48.020;16.720;2022-11-18T12:31:38;24.23;;;11.75;;
41514;SDS011;27247;48.020;16.720;2022-11-18T12:35:49;22.58;;;11.55;;
41514;SDS011;27247;48.020;16.720;2022-11-18T12:40:00;29.00;;;13.10;;
41514;SDS011;27247;48.020;16.720;2022-11-18T12:44:11;28.90;;;11.98;;
41514;SDS011;27247;48.020;16.720;2022-11-18T12:52:48;18.88;;;9.65;;
41514;SDS011;27247;48.020;16.720;2022-11-18T12:57:03;20.88;;;10.13;;
41514;SDS011;27247;48.020;16.720;2022-11-18T13:01:27;20.92;;;9.23;;
41514;SDS011;27247;48.020;16.720;2022-11-18T13:05:39;22.17;;;10.20;;
41514;SDS011;27247;48.020;16.720;2022-11-18T13:09:50;22.70;;;10.23;;
41514;SDS011;27247;48.020;16.720;2022-11-18T13:14:00;21.27;;;10.52;;
41514;SDS011;27247;48.020;16.720;2022-11-18T13:18:31;22.63;;;9.32;;
41514;SDS011;27247;48.020;16.720;2022-11-18T13:22:47;20.60;;;9.30;;
41514;SDS011;27247;48.020;16.720;2022-11-18T13:27:26;17.13;;;8.15;;
41514;SDS011;27247;48.020;16.720;2022-11-18T13:31:47;19.33;;;8.05;;
41514;SDS011;27247;48.020;16.720;2022-11-18T13:36:22;19.55;;;9.55;;
41514;SDS011;27247;48.020;16.720;2022-11-18T13:40:38;27.80;;;12.73;;
41514;SDS011;27247;48.020;16.720;2022-11-18T13:45:13;34.17;;;18.80;;
41514;SDS011;27247;48.020;16.720;2022-11-18T13:49:29;29.80;;;13.15;;
41514;SDS011;27247;48.020;16.720;2022-11-18T13:53:52;30.88;;;14.52;;
41514;SDS011;27247;48.020;16.720;2022-11-18T13:58:18;57.63;;;25.33;;
41514;SDS011;27247;48.020;16.720;2022-11-18T14:02:40;34.13;;;14.82;;
41514;SDS011;27247;48.020;16.720;2022-11-18T14:11:45;27.73;;;12.43;;
41514;SDS011;27247;48.020;16.720;2022-11-18T14:20:27;34.20;;;14.75;;
41514;SDS011;27247;48.020;16.720;2022-11-18T14:24:39;46.33;;;18.73;;
41514;SDS011;27247;48.020;16.720;2022-11-18T14:28:55;53.90;;;20.33;;
41514;SDS011;27247;48.020;16.720;2022-11-18T14:37:27;32.25;;;13.70;;
41514;SDS011;27247;48.020;16.720;2022-11-18T14:41:39;38.88;;;15.07;;
41514;SDS011;27247;48.020;16.720;2022-11-18T14:45:59;35.63;;;14.10;;
41514;SDS011;27247;48.020;16.720;2022-11-18T14:50:12;26.02;;;12.55;;
41514;SDS011;27247;48.020;16.720;2022-11-18T14:54:24;23.65;;;11.25;;
41514;SDS011;27247;48.020;16.720;2022-11-18T14:58:35;26.05;;;11.50;;
41514;SDS011;27247;48.020;16.720;2022-11-18T15:02:45;25.40;;;11.50;;
41514;SDS011;27247;48.020;16.720;2022-11-18T15:06:55;23.13;;;10.40;;
41514;SDS011;27247;48.020;16.720;2022-11-18T15:11:05;26.33;;;12.70;;
41514;SDS011;27247;48.020;16.720;2022-11-18T15:15:16;25.90;;;12.68;;
41514;SDS011;27247;48.020;16.720;2022-11-18T15:19:26;23.40;;;11.52;;
41514;SDS011;27247;48.020;16.720;2022-11-18T15:23:37;22.25;;;11.20;;
41514;SDS011;27247;48.020;16.720;2022-11-18T15:27:47;20.85;;;10.70;;
41514;SDS011;27247;48.020;16.720;2022-11-18T15:31:58;19.97;;;11.30;;
41514;SDS011;27247;48.020;16.720;2022-11-18T15:36:13;21.08;;;10.75;;
41514;SDS011;27247;48.020;16.720;2022-11-18T15:40:25;23.13;;;10.85;;
41514;SDS011;27247;48.020;16.720;2022-11-18T15:44:35;19.52;;;10.52;;
41514;SDS011;27247;48.020;16.720;2022-11-18T15:48:46;19.02;;;11.43;;
41514;SDS011;27247;48.020;16.720;2022-11-18T15:52:59;18.67;;;11.05;;
41514;SDS011;27247;48.020;16.720;2022-11-18T15:57:10;27.98;;;13.68;;
41514;SDS011;27247;48.020;16.720;2022-11-18T16:01:21;22.17;;;11.85;;
41514;SDS011;27247;48.020;16.720;2022-11-18T16:05:31;27.38;;;14.95;;
41514;SDS011;27247;48.020;16.720;2022-11-18T16:09:42;21.77;;;12.77;;
41514;SDS011;27247;48.020;16.720;2022-11-18T16:14:12;27.17;;;15.07;;
41514;SDS011;27247;48.020;16.720;2022-11-18T16:18:23;27.63;;;15.90;;
41514;SDS011;27247;48.020;16.720;2022-11-18T16:22:34;31.67;;;17.63;;
41514;SDS011;27247;48.020;16.720;2022-11-18T16:26:44;32.17;;;18.27;;
41514;SDS011;27247;48.020;16.720;2022-11-18T16:30:55;28.88;;;17.38;;
41514;SDS011;27247;48.020;16.720;2022-11-18T16:35:24;27.92;;;17.35;;
41514;SDS011;27247;48.020;16.720;2022-11-18T16:39:35;32.38;;;17.10;;
41514;SDS011;27247;48.020;16.720;2022-11-18T16:43:47;26.98;;;16.23;;
41514;SDS011;27247;48.020;16.720;2022-11-18T16:47:58;26.33;;;15.70;;
41514;SDS011;27247;48.020;16.720;2022-11-18T16:52:08;27.63;;;15.23;;
41514;SDS011;27247;48.020;16.720;2022-11-18T16:56:20;25.50;;;14.23;;
41514;SDS011;27247;48.020;16.720;2022-11-18T17:00:33;25.00;;;14.85;;
41514;SDS011;27247;48.020;16.720;2022-11-18T17:04:44;29.63;;;16.25;;
41514;SDS011;27247;48.020;16.720;2022-11-18T17:08:55;23.08;;;13.98;;
41514;SDS011;27247;48.020;16.720;2022-11-18T17:13:05;26.33;;;14.93;;
41514;SDS011;27247;48.020;16.720;2022-11-18T17:17:15;24.30;;;13.75;;
41514;SDS011;27247;48.020;16.720;2022-11-18T17:21:26;26.40;;;14.50;;
41514;SDS011;27247;48.020;16.720;2022-11-18T17:25:38;26.02;;;14.60;;
41514;SDS011;27247;48.020;16.720;2022-11-18T17:29:50;32.20;;;14.73;;
41514;SDS011;27247;48.020;16.720;2022-11-18T17:34:00;26.35;;;14.02;;
41514;SDS011;27247;48.020;16.720;2022-11-18T17:38:11;30.48;;;15.38;;
41514;SDS011;27247;48.020;16.720;2022-11-18T17:42:22;29.77;;;15.77;;
41514;SDS011;27247;48.020;16.720;2022-11-18T17:46:34;32.08;;;17.63;;
41514;SDS011;27247;48.020;16.720;2022-11-18T23:50:34;59.58;;;27.17;;
41514;SDS011;27247;48.020;16.720;2022-11-18T23:54:44;56.28;;;26.05;;
41514;SDS011;27247;48.020;16.720;2022-11-18T23:58:55;61.78;;;25.80;;
